• Join FlightAware (Why Join?)
  • Login
  • US Flag 
04:29PM EST


 

Airport Tracker/Info


-or-


 

Live Flight TrackerFlight Track Log ✈ VOZ989 ✈ 26-Apr-2013 ✈ YSSY / SYD - YBBN / BNE

Flight Track Log - Related Links

Times and Time Zones

All times are in EDT time to prevent confusion due to time zone crossing. See the VOZ989 flight status page for this flight to view local times or setup timezone preferences in your user account.

Time Position Orientation Groundspeed Altitude Reporting Facility
EDT Latitude Longitude Course Direction KTS MPH feet Rate Location/Type
06:02AM -33.9400 151.1780 168° South 16 18  Level FlightAware
06:03AM -33.9420 151.1780 180° South 19 22 120 Level FlightAware
06:03AM -33.9440 151.1790 157° South 18 21 120 Level FlightAware
06:04AM -33.9460 151.1790 180° South 14 16 120 Level FlightAware
06:04AM -33.9480 151.1800 157° South 17 20 120 Level FlightAware
06:05AM -33.9490 151.1800 180° South 19 22 120 Level FlightAware
06:05AM -33.9510 151.1810 157° South 14 16 120 Level FlightAware
06:05AM -33.9510 151.1830 90° East 18 21 180 Level FlightAware
06:06AM -33.9520 151.1860 112° Southeast 19 22 180 Level FlightAware
06:06AM -33.9530 151.1870 140° Southeast 20 23 180 Level FlightAware
06:07AM -33.9540 151.1870 180° South 20 23 180 Level FlightAware
06:07AM -33.9570 151.1880 165° South 21 24 240 Level FlightAware
06:07AM -33.9580 151.1890 140° Southeast 22 25 240 Level FlightAware
06:08AM -33.9610 151.1890 180° South 22 25 240 Level FlightAware
06:08AM -33.9620 151.1900 140° Southeast 23 26 300 Level FlightAware
06:09AM -33.9650 151.1900 180° South 21 24 300 Level FlightAware
06:11AM -33.9710 151.1940 90° East 10 12 300 Level FlightAware
06:11AM -33.9700 151.1940 360° North 9 10 1,080 Level FlightAware
06:12AM -33.9355 151.1861 348° North 150 173 1,400 900 Climbing Aus ATC (RADAR)
06:12AM -33.9390 151.1870 348° North 143 165 900 180 Descending FlightAware
06:13AM -33.9180 151.2000 27° Northeast 199 229 1,500 1,680 Climbing FlightAware
06:13AM -33.8950 151.2210 37° Northeast 210 242 2,600 2,040 Climbing FlightAware
06:14AM -33.8730 151.2410 37° Northeast 241 277 3,400 1,380 Climbing FlightAware
06:14AM -33.8460 151.2640 35° Northeast 268 308 3,900 1,080 Climbing FlightAware
06:15AM -33.8220 151.3000 51° Northeast 282 325 4,400 960 Climbing FlightAware
06:15AM -33.8110 151.3440 73° East 285 328 4,800 480 Climbing FlightAware
06:16AM -33.8030 151.3670 67° East 284 327 4,800  Level FlightAware
06:16AM -33.7850 151.3970 54° Northeast 281 323 4,800 480 Level FlightAware
06:16AM -33.7620 151.4240 44° Northeast 282 325 5,200 1,860 Climbing FlightAware
06:17AM -33.7360 151.4360 21° North 283 326 6,200 2,520 Climbing FlightAware
06:17AM -33.7220 151.4410 17° North 287 330 6,700 2,700 Climbing FlightAware
06:17AM -33.6890 151.4540 18° North 293 337 8,000 3,240 Climbing FlightAware
06:18AM -33.6520 151.4690 19° North 302 348 9,400 2,400 Climbing FlightAware
06:19AM -33.5950 151.4910 18° North 337 388 10,800 2,580 Climbing FlightAware
06:19AM -33.5570 151.5060 18° North 342 394 12,100 3,660 Climbing Aus ATC (RADAR)
06:19AM -33.4978 151.5289 18° North 360 414 14,200 2,520 Climbing Aus ATC (RADAR)
06:19AM -33.5040 151.5270 18° North 360 414 13,700 2,400 Descending FlightAware
06:20AM -33.4360 151.5530 18° North 377 434 15,800 3,720 Climbing FlightAware
06:21AM -33.3706 151.5787 18° North 369 425 18,500 3,300 Climbing Aus ATC (RADAR)
06:21AM -33.3670 151.5810 18° North 375 432 18,300 2,340 Descending FlightAware
06:22AM -33.2910 151.6100 18° North 384 442 20,600 3,360 Climbing FlightAware
06:22AM -33.2528 151.6250 18° North 382 440 21,800 2,520 Climbing Aus ATC (RADAR)
06:22AM -33.2230 151.6370 18° North 392 451 22,300 2,280 Climbing FlightAware
06:23AM -33.1575 151.6628 18° North 394 453 23,900 2,220 Climbing Aus ATC (RADAR)
06:23AM -33.1480 151.6660 18° North 408 470 23,800 1,860 Descending FlightAware
06:24AM -33.0798 151.6926 18° North 415 478 25,300 1,860 Climbing Aus ATC (RADAR)
06:24AM -33.0750 151.6950 18° North 419 482 25,200 2,220 Descending FlightAware
06:24AM -33.0099 151.7200 18° North 418 481 26,700 2,400 Climbing Aus ATC (RADAR)
06:24AM -33.0020 151.7230 18° North 427 491 26,600 2,100 Descending FlightAware
06:25AM -32.9055 151.7599 18° North 426 490 28,600 2,040 Climbing Aus ATC (RADAR)
06:25AM -32.9110 151.7580 18° North 432 497 28,300 1,680 Descending FlightAware
06:26AM -32.8392 151.7869 18° North 430 495 29,600 1,680 Climbing Aus ATC (RADAR)
06:26AM -32.8420 151.7850 18° North 438 504 29,300 1,440 Descending FlightAware
06:27AM -32.7410 151.8240 18° North 443 510 30,900 2,340 Climbing FlightAware
06:27AM -32.6978 151.8408 18° North 442 509 32,000 2,160 Climbing Aus ATC (RADAR)
06:27AM -32.6500 151.8590 18° North 435 501 32,700 1,800 Climbing FlightAware
06:28AM -32.5963 151.8796 18° North 430 495 33,600 1,980 Climbing Aus ATC (RADAR)
06:28AM -32.5291 151.9054 18° North 425 489 34,600 1,020 Climbing Aus ATC (RADAR)
06:28AM -32.5350 151.9030 18° North 437 503 34,300 720 Descending FlightAware
06:29AM -32.4630 151.9310 18° North 440 506 35,100 1,320 Climbing FlightAware
06:30AM -32.3680 151.9680 18° North 442 509 36,200 1,260 Climbing FlightAware
06:30AM -32.2960 151.9950 18° North 431 496 37,000 720 Climbing FlightAware
06:31AM -32.2080 152.0290 18° North 433 498 37,300 840 Climbing FlightAware
06:32AM -32.1602 152.0473 18° North 433 498 37,900 1,200 Climbing Aus ATC (RADAR)
06:32AM -32.1312 152.0583 18° North 435 501 38,000 -300 Climbing Aus ATC (RADAR)
06:32AM -32.1280 152.0590 18° North 440 506 37,800 1,080 Descending FlightAware
06:32AM -32.0672 152.0821 18° North 435 501 38,600 1,200 Climbing Aus ATC (RADAR)
06:33AM -32.0500 152.0890 18° North 439 505 38,600 720 Level FlightAware
06:33AM -31.9614 152.1225 18° North 434 499 39,300 480 Climbing Aus ATC (RADAR)
06:33AM -31.9670 152.1210 18° North 435 501 39,000 -420 Descending FlightAware
06:34AM -31.8960 152.1470 17° North 433 498 39,000  Level FlightAware
06:35AM -31.8060 152.1810 18° North 432 497 39,000 240 Level FlightAware
06:35AM -31.7612 152.1984 18° North 428 493 39,300  Climbing Aus ATC (RADAR)
06:35AM -31.7260 152.2120 18° North 432 497 39,000 -300 Descending FlightAware
06:36AM -31.6480 152.2410 18° North 432 497 39,000 180 Level FlightAware
06:36AM -31.5898 152.2629 18° North 431 496 39,200 300 Climbing Aus ATC (RADAR)
06:37AM -31.5237 152.2879 18° North 429 494 39,300 -360 Climbing Aus ATC (RADAR)
06:37AM -31.5390 152.2820 18° North 430 495 39,000 -480 Descending FlightAware
06:38AM -31.4730 152.3060 17° North 430 495 39,000  Level FlightAware
06:38AM -31.4090 152.3290 17° North 430 495 39,000 180 Level FlightAware
06:39AM -31.2938 152.3748 17° North 424 488 39,300  Climbing Aus ATC (RADAR)
06:39AM -31.2890 152.3750 17° North 427 491 39,000 -420 Descending FlightAware
06:40AM -31.2240 152.3980 17° North 427 491 39,000 360 Level FlightAware
06:40AM -31.1856 152.4151 17° North 424 488 39,300 900 Climbing Aus ATC (RADAR)
06:40AM -31.1577 152.4256 17° North 424 488 39,300 -420 Level Aus ATC (RADAR)
06:41AM -31.1440 152.4270 17° North 427 491 39,000 -300 Descending FlightAware
06:41AM -31.0800 152.4500 17° North 427 491 39,000 240 Level FlightAware
06:42AM -30.9851 152.4896 17° North 417 480 39,300  Climbing Aus ATC (RADAR)
06:42AM -31.0160 152.4720 17° North 427 491 39,000 -180 Descending FlightAware
06:42AM -30.9198 152.5134 17° North 418 481 39,200  Climbing Aus ATC (RADAR)
06:43AM -30.9510 152.4950 17° North 427 491 39,000 60 Descending FlightAware
06:43AM -30.8140 152.5531 17° North 418 481 39,300  Climbing Aus ATC (RADAR)
06:43AM -30.8870 152.5180 17° North 427 491 39,000 -420 Descending FlightAware
06:44AM -30.8230 152.5410 17° North 427 491 39,000 360 Level FlightAware
06:44AM -30.7217 152.5873 17° North 418 481 39,300  Climbing Aus ATC (RADAR)
06:45AM -30.6440 152.6150 20° North 417 480 39,000 -240 Descending FlightAware
06:46AM -30.5710 152.6420 20° North 415 478 39,000 420 Level FlightAware
06:46AM -30.5596 152.6457 20° North 413 475 39,300 300 Climbing Aus ATC (RADAR)
06:47AM -30.4648 152.6824 20° North 414 476 39,300 -360 Level Aus ATC (RADAR)
06:47AM -30.4600 152.6830 20° North 414 476 39,000 -180 Descending FlightAware
06:47AM -30.4011 152.7058 20° North 413 475 39,200  Climbing Aus ATC (RADAR)
06:47AM -30.3890 152.7090 20° North 411 473 39,000 -240 Descending FlightAware
06:48AM -30.3140 152.7360 17° North 409 471 39,000 180 Level FlightAware
06:49AM -30.2389 152.7652 17° North 407 468 39,300  Climbing Aus ATC (RADAR)
06:49AM -30.2330 152.7660 17° North 408 470 39,000 -420 Descending FlightAware
06:49AM -30.1680 152.7900 18° North 408 470 39,000  Level FlightAware
06:50AM -30.0830 152.8200 17° North 408 470 39,000  Level FlightAware
06:51AM -30.0080 152.8480 18° North 407 468 39,000  Level FlightAware
06:52AM -29.9270 152.8770 17° North 406 467 39,000 120 Level FlightAware
06:52AM -29.8702 152.8975 17° North 405 466 39,200  Climbing Aus ATC (RADAR)
06:52AM -29.8570 152.9030 17° North 405 466 39,000 120 Descending FlightAware
06:53AM -29.8077 152.9205 17° North 405 466 39,300  Climbing Aus ATC (RADAR)
06:53AM -29.7830 152.9300 17° North 406 467 39,000  Descending FlightAware
06:54AM -29.7003 152.9589 17° North 406 467 39,300  Climbing Aus ATC (RADAR)
06:54AM -29.7030 152.9580 17° North 405 466 39,000 -480 Descending FlightAware
06:54AM -29.6320 152.9840 18° North 407 468 39,000  Level FlightAware
06:55AM -29.5500 153.0140 18° North 408 470 39,000  Level FlightAware
06:56AM -29.4770 153.0400 17° North 410 472 39,000  Level FlightAware
06:56AM -29.4040 153.0660 17° North 413 475 39,000 300 Level FlightAware
06:57AM -29.3659 153.0808 17° North 413 475 39,300 480 Climbing Aus ATC (RADAR)
06:57AM -29.3386 153.0909 18° North 414 476 39,300 -900 Level Aus ATC (RADAR)
06:57AM -29.3310 153.0920 18° North 414 476 39,000  Descending FlightAware
06:57AM -29.2789 153.1107 18° North 411 473 39,300  Climbing Aus ATC (RADAR)
06:58AM -29.2420 153.1240 18° North 412 474 39,000 -300 Descending FlightAware
06:59AM -29.1650 153.1520 18° North 407 468 39,000 300 Level FlightAware
06:59AM -29.1300 153.1647 18° North 408 470 39,300 300 Climbing Aus ATC (RADAR)
06:59AM -29.0710 153.1827 15° North 399 459 39,300 -300 Level Aus ATC (RADAR)
07:00AM -29.0200 153.2040 15° North 402 463 39,000 -120 Descending FlightAware
07:00AM -28.9560 153.2240 15° North 396 456 39,200 -180 Climbing Aus ATC (RADAR)
07:01AM -28.9480 153.2290 15° North 388 447 38,900 -1,020 Descending FlightAware
07:01AM -28.8945 153.2479 15° North 378 435 38,600 -1,500 Descending Aus ATC (RADAR)
07:01AM -28.8740 153.2550 15° North 370 426 37,800 -2,280 Descending FlightAware
07:02AM -28.8293 153.2708 15° North 371 427 37,100 -2,280 Descending Aus ATC (RADAR)
07:02AM -28.8060 153.2790 15° North 371 427 36,300 -2,280 Descending FlightAware
07:02AM -28.7719 153.2910 15° North 371 427 35,800 -2,400 Descending Aus ATC (RADAR)
07:03AM -28.7400 153.3020 15° North 377 434 34,700 -2,640 Descending FlightAware
07:03AM -28.6914 153.3185 15° North 373 429 33,700 -2,700 Descending Aus ATC (RADAR)
07:03AM -28.6640 153.3300 15° North 391 450 32,700 -2,700 Descending FlightAware
07:04AM -28.6154 153.3488 15° North 379 436 31,700 -2,700 Descending Aus ATC (RADAR)
07:04AM -28.5930 153.3550 15° North 400 460 30,900 -2,820 Descending FlightAware
07:04AM -28.5566 153.3678 15° North 401 461 30,200 -2,700 Descending Aus ATC (RADAR)
07:05AM -28.5200 153.3800 15° North 415 478 29,100 -2,400 Descending FlightAware
07:05AM -28.4471 153.4064 15° North 412 474 27,800 -2,280 Descending Aus ATC (RADAR)
07:06AM -28.4400 153.4090 15° North 410 472 27,400 -2,580 Descending FlightAware
07:06AM -28.3660 153.4350 17° North 407 468 25,800 -2,340 Descending FlightAware
07:07AM -28.2860 153.4630 17° North 398 458 24,100 -2,220 Descending FlightAware
07:08AM -28.2150 153.4880 17° North 391 450 22,700 -2,160 Descending FlightAware
07:08AM -28.1550 153.5000 10° North 378 435 21,400 -2,220 Descending FlightAware
07:09AM -28.1210 153.4960 354° North 370 426 20,700 -1,920 Descending FlightAware
07:09AM -28.0689 153.4870 354° North 367 422 19,900 -2,100 Descending Aus ATC (RADAR)
07:09AM -28.0550 153.4840 354° North 362 417 19,300 -2,100 Descending FlightAware
07:10AM -28.0112 153.4769 354° North 361 415 18,700 -2,160 Descending Aus ATC (RADAR)
07:10AM -27.9830 153.4710 354° North 355 409 17,700 -2,100 Descending FlightAware
07:11AM -27.9225 153.4607 354° North 352 405 16,800 -1,980 Descending Aus ATC (RADAR)
07:11AM -27.9160 153.4590 354° North 351 404 16,400 -2,040 Descending FlightAware
07:11AM -27.8743 153.4520 354° North 351 404 15,800 -2,040 Descending Aus ATC (RADAR)
07:11AM -27.8450 153.4470 354° North 347 399 14,900 -2,040 Descending FlightAware
07:12AM -27.7871 153.4370 354° North 343 395 14,000 -1,980 Descending Aus ATC (RADAR)
07:12AM -27.7810 153.4360 354° North 343 395 13,600 -2,040 Descending FlightAware
07:13AM -27.7090 153.4229 354° North 341 392 12,300 -2,040 Descending Aus ATC (RADAR)
07:13AM -27.7100 153.4230 354° North 339 390 12,100 -1,860 Descending FlightAware
07:13AM -27.6500 153.4120 351° North 329 379 11,000 -1,680 Descending FlightAware
07:14AM -27.6103 153.4047 351° North 329 379 10,400 -1,500 Descending Aus ATC (RADAR)
07:14AM -27.5890 153.4000 351° North 320 368 10,000 -720 Descending FlightAware
07:14AM -27.5596 153.3952 351° North 315 362 10,000 -840 Level Aus ATC (RADAR)
07:15AM -27.5460 153.3920 351° North 301 346 9,600 -1,680 Descending FlightAware
07:15AM -27.5050 153.3850 351° North 298 343 8,800 -1,560 Descending FlightAware
07:16AM -27.4710 153.3780 350° North 295 339 8,200 -1,440 Descending FlightAware
07:16AM -27.4300 153.3700 350° North 294 338 7,500 -1,320 Descending FlightAware
07:16AM -27.4037 153.3656 350° North 294 338 7,200 -1,680 Descending Aus ATC (RADAR)
07:16AM -27.3970 153.3640 350° North 293 337 6,800 -1,740 Descending FlightAware
07:17AM -27.3570 153.3560 350° North 290 334 6,100 -1,440 Descending FlightAware
07:17AM -27.3170 153.3490 351° North 287 330 5,400 -1,200 Descending FlightAware
07:18AM -27.2880 153.3430 350° North 275 316 5,000 -780 Descending FlightAware
07:18AM -27.2530 153.3270 338° Northwest 258 297 4,700 -660 Descending FlightAware
07:19AM -27.2280 153.3070 325° Northwest 249 287 4,400 -300 Descending FlightAware
07:19AM -27.2103 153.2908 325° Northwest 246 283 4,500 -600 Climbing Aus ATC (RADAR)
07:19AM -27.2080 153.2780 325° Northwest 235 270 4,100 -1,320 Descending FlightAware
07:20AM -27.2100 153.2480 266° West 229 264 3,700 -1,080 Descending FlightAware
07:20AM -27.2130 153.2300 259° West 223 257 3,400 -1,440 Descending FlightAware
07:20AM -27.2220 153.2180 230° Southwest 214 246 3,000 -1,440 Descending FlightAware
07:20AM -27.2330 153.2140 198° South 206 237 2,700 -1,200 Descending FlightAware
07:21AM -27.2440 153.2090 202° Southwest 203 234 2,500 -480 Descending FlightAware
07:21AM -27.2600 153.1996 202° Southwest 199 229 2,500 -1,020 Level Aus ATC (RADAR)
07:21AM -27.2690 153.1950 202° Southwest 194 223 2,000 -1,080 Descending FlightAware
07:21AM -27.2878 153.1836 202° Southwest 194 223 1,900 -720 Descending Aus ATC (RADAR)
07:22AM -27.2870 153.1840 202° Southwest 188 216 1,700 -1,260 Descending FlightAware
07:22AM -27.3130 153.1690 207° Southwest 165 190 1,100 -900 Descending FlightAware
07:23AM -27.3290 153.1600 207° Southwest 144 166 800 -540 Descending FlightAware
07:23AM -27.3445 153.1514 207° Southwest 149 171 700 -840 Descending Aus ATC (RADAR)
07:23AM -27.3470 153.1500 207° Southwest 145 167 400 -1,080 Descending FlightAware
07:23AM -27.3620 153.1420 205° Southwest 144 166 100 -480 Descending FlightAware
07:24AM -27.3742 153.1347 205° Southwest 143 165 100  Level Aus ATC (RADAR)
07:24AM -27.3810 153.1310 205° Southwest 133 153 -480 Descending FlightAware
07:24AM -27.3880 153.1260 212° Southwest 37 43  Level FlightAware
07:25AM -27.3900 153.1250 204° Southwest 24 28  Level FlightAware
07:25AM -27.3910 153.1230 241° Southwest 13 15  Level FlightAware